createdAt,value
2022-09-02T00:01:57.971Z,11.99
2022-09-02T00:13:57.894Z,11.97
2022-09-02T00:25:58.316Z,11.95
2022-09-02T00:37:57.879Z,11.94
2022-09-02T00:49:57.861Z,11.93
2022-09-02T01:01:57.932Z,11.92
2022-09-02T01:13:57.846Z,11.90
2022-09-02T01:25:57.851Z,11.88
2022-09-02T01:37:57.863Z,11.87
2022-09-02T01:49:58.098Z,11.85
2022-09-02T02:01:57.954Z,11.84
2022-09-02T02:13:57.881Z,11.83
2022-09-02T02:25:57.837Z,11.81
2022-09-02T02:37:57.846Z,11.80
2022-09-02T02:49:59.637Z,11.78
2022-09-02T03:01:57.959Z,11.77
2022-09-02T03:13:57.882Z,11.76
2022-09-02T03:25:57.865Z,11.74
2022-09-02T03:37:57.842Z,11.72
2022-09-02T03:49:57.880Z,11.71
2022-09-02T04:01:57.919Z,11.69
2022-09-02T04:13:57.857Z,11.69
2022-09-02T04:25:57.894Z,11.67
2022-09-02T04:37:57.872Z,11.66
2022-09-02T04:49:57.873Z,11.64
2022-09-02T05:01:58.010Z,11.63
2022-09-02T05:13:57.898Z,11.62
2022-09-02T05:25:57.900Z,11.61
2022-09-02T05:38:00.914Z,11.61
2022-09-02T05:49:57.923Z,11.61
2022-09-02T06:01:58.029Z,11.61
2022-09-02T06:13:57.936Z,11.65
2022-09-02T06:25:57.904Z,11.70
2022-09-02T06:37:57.932Z,11.74
2022-09-02T06:49:57.854Z,11.79
2022-09-02T07:01:58.082Z,11.83
2022-09-02T07:13:57.874Z,11.92
2022-09-02T07:25:57.853Z,12.05
2022-09-02T07:37:57.854Z,12.14
2022-09-02T07:50:20.994Z,12.24
2022-09-02T08:01:57.928Z,12.41
2022-09-02T08:13:57.852Z,12.53
2022-09-02T08:25:57.839Z,12.65
2022-09-02T08:37:57.839Z,12.65
2022-09-02T08:49:57.878Z,12.66
2022-09-02T09:01:57.917Z,12.67
2022-09-02T09:13:57.882Z,12.68
2022-09-02T09:25:57.858Z,12.68
2022-09-02T09:37:57.860Z,12.68
2022-09-02T09:49:57.889Z,12.68
2022-09-02T10:01:57.926Z,12.68
2022-09-02T10:13:57.877Z,12.68
2022-09-02T10:25:57.871Z,12.67
2022-09-02T10:37:57.841Z,12.66
2022-09-02T10:49:57.863Z,12.66
2022-09-02T11:01:57.861Z,12.64
2022-09-02T11:13:57.883Z,12.64
2022-09-02T11:25:57.945Z,12.63
2022-09-02T11:37:57.890Z,12.63
2022-09-02T11:49:57.844Z,12.63
2022-09-02T12:01:57.869Z,12.62
2022-09-02T12:13:57.862Z,12.62
2022-09-02T12:25:57.881Z,12.62
2022-09-02T12:37:57.867Z,12.62
2022-09-02T12:49:57.874Z,12.62
2022-09-02T13:13:57.857Z,12.63
2022-09-02T13:25:57.863Z,12.62
2022-09-02T13:37:57.969Z,12.62
2022-09-02T13:49:57.881Z,12.63
2022-09-02T14:01:58.038Z,12.63
2022-09-02T14:13:57.856Z,12.63
2022-09-02T14:25:57.880Z,12.63
2022-09-02T14:37:57.860Z,12.62
2022-09-02T14:49:57.891Z,12.63
2022-09-02T15:01:57.877Z,12.63
2022-09-02T15:13:57.863Z,12.62
2022-09-02T15:25:57.849Z,12.63
2022-09-02T15:37:58.221Z,12.63
2022-09-02T15:49:57.882Z,12.63
2022-09-02T16:01:57.899Z,12.63
2022-09-02T16:13:57.866Z,12.63
2022-09-02T16:25:57.869Z,12.60
2022-09-02T16:37:58.519Z,12.59
2022-09-02T16:49:57.886Z,12.58
2022-09-02T17:01:57.954Z,12.55
2022-09-02T17:13:57.870Z,12.55
2022-09-02T17:25:57.861Z,12.53
2022-09-02T17:37:57.856Z,12.52
2022-09-02T17:49:58.141Z,12.50
2022-09-02T18:01:58.050Z,12.48
2022-09-02T18:13:57.869Z,12.46
2022-09-02T18:25:58.057Z,12.44
2022-09-02T18:37:57.848Z,12.42
2022-09-02T18:49:57.873Z,12.41
2022-09-02T19:01:58.021Z,12.38
2022-09-02T19:13:57.868Z,12.37
2022-09-02T19:25:57.866Z,12.34
2022-09-02T19:37:57.853Z,12.34
2022-09-02T19:49:57.877Z,12.32
2022-09-02T20:01:57.951Z,12.30
2022-09-02T20:13:58.077Z,12.28
2022-09-02T20:25:57.939Z,12.26
2022-09-02T20:37:57.907Z,12.25
2022-09-02T20:49:57.925Z,12.24
2022-09-02T21:01:57.993Z,12.22
2022-09-02T21:13:57.915Z,12.20
2022-09-02T21:25:57.898Z,12.18
2022-09-02T21:37:57.866Z,12.17
2022-09-02T21:49:57.880Z,12.16
2022-09-02T22:01:57.897Z,12.14
2022-09-02T22:13:58.242Z,12.12
2022-09-02T22:25:57.862Z,12.10
2022-09-02T22:37:57.847Z,12.08
2022-09-02T22:49:57.864Z,12.07
2022-09-02T23:01:57.924Z,12.05
2022-09-02T23:13:57.871Z,12.04
2022-09-02T23:25:57.844Z,12.02
2022-09-02T23:37:57.857Z,12.01
2022-09-02T23:49:57.898Z,11.99
